<?xml version="1.0" encoding="UTF-8" standalone="no" ?>
<gpx xmlns="http://www.topografix.com/GPX/1/1" xmlns:xsi="http://www.w3.org/2001/XMLSchema-instance" xsi:schemaLocation="http://www.topografix.com/GPX/1/1 http://www.topografix.com/GPX/1/1/gpx.xsd" version="1.1" creator="VisuGPX - https://www.visugpx.com">
  <metadata>
    <name>39 km plaine de la limagne</name>
    <desc><![CDATA[
]]></desc>
  </metadata>
  <trk>
    <name><![CDATA[39 km plaine de la limagne_1]]></name>
    <trkseg>
      <trkpt lat="45.83733" lon="3.26119">
        <ele>317.6</ele>
      </trkpt>
      <trkpt lat="45.83731" lon="3.26101">
        <ele>318.1</ele>
      </trkpt>
      <trkpt lat="45.83723" lon="3.26068">
        <ele>319.5</ele>
      </trkpt>
      <trkpt lat="45.83692" lon="3.25898">
        <ele>324.3</ele>
      </trkpt>
      <trkpt lat="45.83549" lon="3.25924">
        <ele>316.1</ele>
      </trkpt>
      <trkpt lat="45.83527" lon="3.25832">
        <ele>316.1</ele>
      </trkpt>
      <trkpt lat="45.83494" lon="3.25838">
        <ele>316.7</ele>
      </trkpt>
      <trkpt lat="45.8347" lon="3.25801">
        <ele>317.5</ele>
      </trkpt>
      <trkpt lat="45.8345" lon="3.2576">
        <ele>317.9</ele>
      </trkpt>
      <trkpt lat="45.83513" lon="3.25702">
        <ele>316.3</ele>
      </trkpt>
      <trkpt lat="45.83511" lon="3.25636">
        <ele>316.2</ele>
      </trkpt>
      <trkpt lat="45.83382" lon="3.25457">
        <ele>314.6</ele>
      </trkpt>
      <trkpt lat="45.8333" lon="3.25258">
        <ele>314.3</ele>
      </trkpt>
      <trkpt lat="45.83212" lon="3.24813">
        <ele>316.6</ele>
      </trkpt>
      <trkpt lat="45.83236" lon="3.24797">
        <ele>316</ele>
      </trkpt>
      <trkpt lat="45.83236" lon="3.24796">
        <ele>315</ele>
        <time>2020-01-08T07:25:42Z</time>
      </trkpt>
      <trkpt lat="45.83136" lon="3.24449">
        <ele>315</ele>
        <time>2020-01-08T07:26:43Z</time>
      </trkpt>
      <trkpt lat="45.83115" lon="3.24306">
        <ele>315</ele>
        <time>2020-01-08T07:27:07Z</time>
      </trkpt>
      <trkpt lat="45.83082" lon="3.24207">
        <ele>316</ele>
        <time>2020-01-08T07:27:25Z</time>
      </trkpt>
      <trkpt lat="45.8328" lon="3.22851">
        <ele>319</ele>
        <time>2020-01-08T07:31:10Z</time>
      </trkpt>
      <trkpt lat="45.83304" lon="3.22725">
        <ele>318</ele>
        <time>2020-01-08T07:31:31Z</time>
      </trkpt>
      <trkpt lat="45.83326" lon="3.22623">
        <ele>317</ele>
        <time>2020-01-08T07:31:49Z</time>
      </trkpt>
      <trkpt lat="45.83535" lon="3.22636">
        <ele>318</ele>
        <time>2020-01-08T07:32:38Z</time>
      </trkpt>
      <trkpt lat="45.83617" lon="3.22271">
        <ele>318</ele>
        <time>2020-01-08T07:33:40Z</time>
      </trkpt>
      <trkpt lat="45.83663" lon="3.22042">
        <ele>319</ele>
        <time>2020-01-08T07:34:19Z</time>
      </trkpt>
      <trkpt lat="45.83748" lon="3.21655">
        <ele>319</ele>
        <time>2020-01-08T07:35:25Z</time>
      </trkpt>
      <trkpt lat="45.83805" lon="3.2162">
        <ele>319</ele>
        <time>2020-01-08T07:35:39Z</time>
      </trkpt>
      <trkpt lat="45.83932" lon="3.21554">
        <ele>319</ele>
        <time>2020-01-08T07:36:11Z</time>
      </trkpt>
      <trkpt lat="45.84019" lon="3.2152">
        <ele>319</ele>
        <time>2020-01-08T07:36:32Z</time>
      </trkpt>
      <trkpt lat="45.84145" lon="3.21419">
        <ele>318</ele>
        <time>2020-01-08T07:37:06Z</time>
      </trkpt>
      <trkpt lat="45.84198" lon="3.21466">
        <ele>318</ele>
        <time>2020-01-08T07:37:20Z</time>
      </trkpt>
      <trkpt lat="45.8418" lon="3.2135">
        <ele>316</ele>
        <time>2020-01-08T07:37:40Z</time>
      </trkpt>
      <trkpt lat="45.84226" lon="3.21312">
        <ele>315</ele>
        <time>2020-01-08T07:37:52Z</time>
      </trkpt>
      <trkpt lat="45.84433" lon="3.21255">
        <ele>315</ele>
        <time>2020-01-08T07:38:41Z</time>
      </trkpt>
      <trkpt lat="45.84466" lon="3.21224">
        <ele>315</ele>
        <time>2020-01-08T07:38:50Z</time>
      </trkpt>
      <trkpt lat="45.84467" lon="3.21067">
        <ele>314</ele>
        <time>2020-01-08T07:39:16Z</time>
      </trkpt>
      <trkpt lat="45.84613" lon="3.20929">
        <ele>314</ele>
        <time>2020-01-08T07:39:57Z</time>
      </trkpt>
      <trkpt lat="45.84798" lon="3.20818">
        <ele>314</ele>
        <time>2020-01-08T07:40:44Z</time>
      </trkpt>
      <trkpt lat="45.85039" lon="3.20831">
        <ele>313</ele>
        <time>2020-01-08T07:41:40Z</time>
      </trkpt>
      <trkpt lat="45.85038" lon="3.20804">
        <ele>312</ele>
        <time>2020-01-08T07:41:44Z</time>
      </trkpt>
      <trkpt lat="45.84854" lon="3.2037">
        <ele>314</ele>
        <time>2020-01-08T07:43:07Z</time>
      </trkpt>
      <trkpt lat="45.84756" lon="3.20124">
        <ele>316</ele>
        <time>2020-01-08T07:43:53Z</time>
      </trkpt>
      <trkpt lat="45.84571" lon="3.20132">
        <ele>317</ele>
        <time>2020-01-08T07:44:36Z</time>
      </trkpt>
      <trkpt lat="45.84501" lon="3.20076">
        <ele>317</ele>
        <time>2020-01-08T07:44:55Z</time>
      </trkpt>
      <trkpt lat="45.84441" lon="3.20006">
        <ele>318</ele>
        <time>2020-01-08T07:45:13Z</time>
      </trkpt>
      <trkpt lat="45.84344" lon="3.19961">
        <ele>317</ele>
        <time>2020-01-08T07:45:37Z</time>
      </trkpt>
      <trkpt lat="45.84244" lon="3.19892">
        <ele>317</ele>
        <time>2020-01-08T07:46:03Z</time>
      </trkpt>
      <trkpt lat="45.84149" lon="3.19807">
        <ele>315</ele>
        <time>2020-01-08T07:46:29Z</time>
      </trkpt>
      <trkpt lat="45.83726" lon="3.1951">
        <ele>316</ele>
        <time>2020-01-08T07:48:19Z</time>
      </trkpt>
      <trkpt lat="45.8384" lon="3.1914">
        <ele>315</ele>
        <time>2020-01-08T07:49:25Z</time>
      </trkpt>
      <trkpt lat="45.83815" lon="3.18956">
        <ele>316</ele>
        <time>2020-01-08T07:49:55Z</time>
      </trkpt>
      <trkpt lat="45.83702" lon="3.18785">
        <ele>317</ele>
        <time>2020-01-08T07:50:34Z</time>
      </trkpt>
      <trkpt lat="45.83655" lon="3.18658">
        <ele>317</ele>
        <time>2020-01-08T07:50:57Z</time>
      </trkpt>
      <trkpt lat="45.8383" lon="3.18556">
        <ele>317</ele>
        <time>2020-01-08T07:51:41Z</time>
      </trkpt>
      <trkpt lat="45.84066" lon="3.18489">
        <ele>316</ele>
        <time>2020-01-08T07:52:37Z</time>
      </trkpt>
      <trkpt lat="45.84377" lon="3.1839">
        <ele>318</ele>
        <time>2020-01-08T07:53:52Z</time>
      </trkpt>
      <trkpt lat="45.84445" lon="3.18331">
        <ele>316</ele>
        <time>2020-01-08T07:54:10Z</time>
      </trkpt>
      <trkpt lat="45.84665" lon="3.18382">
        <ele>316</ele>
        <time>2020-01-08T07:55:02Z</time>
      </trkpt>
      <trkpt lat="45.84699" lon="3.18489">
        <ele>316</ele>
        <time>2020-01-08T07:55:21Z</time>
      </trkpt>
      <trkpt lat="45.84756" lon="3.18489">
        <ele>317</ele>
        <time>2020-01-08T07:55:35Z</time>
      </trkpt>
      <trkpt lat="45.84761" lon="3.18454">
        <ele>317</ele>
        <time>2020-01-08T07:55:40Z</time>
      </trkpt>
      <trkpt lat="45.84823" lon="3.18349">
        <ele>318</ele>
        <time>2020-01-08T07:56:03Z</time>
      </trkpt>
      <trkpt lat="45.84866" lon="3.18431">
        <ele>319</ele>
        <time>2020-01-08T07:56:20Z</time>
      </trkpt>
      <trkpt lat="45.84974" lon="3.1859">
        <ele>317</ele>
        <time>2020-01-08T07:56:56Z</time>
      </trkpt>
      <trkpt lat="45.8497" lon="3.18466">
        <ele>317</ele>
        <time>2020-01-08T07:57:16Z</time>
      </trkpt>
      <trkpt lat="45.85047" lon="3.18363">
        <ele>317</ele>
        <time>2020-01-08T07:57:40Z</time>
      </trkpt>
      <trkpt lat="45.85053" lon="3.18349">
        <ele>317</ele>
        <time>2020-01-08T05:39:58Z</time>
      </trkpt>
      <trkpt lat="45.85053" lon="3.18349">
        <ele>317</ele>
        <time>2020-01-08T05:39:58Z</time>
      </trkpt>
      <trkpt lat="45.85053" lon="3.18349">
        <ele>317</ele>
        <time>2020-01-08T05:39:58Z</time>
      </trkpt>
      <trkpt lat="45.8518" lon="3.1815">
        <ele>317</ele>
        <time>2020-01-08T05:40:42Z</time>
      </trkpt>
      <trkpt lat="45.85289" lon="3.1822">
        <ele>317</ele>
        <time>2020-01-08T05:41:10Z</time>
      </trkpt>
      <trkpt lat="45.85373" lon="3.18296">
        <ele>315</ele>
        <time>2020-01-08T05:41:33Z</time>
      </trkpt>
      <trkpt lat="45.85464" lon="3.18431">
        <ele>315</ele>
        <time>2020-01-08T05:42:04Z</time>
      </trkpt>
      <trkpt lat="45.8543" lon="3.18504">
        <ele>315</ele>
        <time>2020-01-08T05:42:18Z</time>
      </trkpt>
      <trkpt lat="45.8533" lon="3.18854">
        <ele>317</ele>
        <time>2020-01-08T05:43:19Z</time>
      </trkpt>
      <trkpt lat="45.85509" lon="3.18972">
        <ele>316</ele>
        <time>2020-01-08T05:44:05Z</time>
      </trkpt>
      <trkpt lat="45.85719" lon="3.19029">
        <ele>313</ele>
        <time>2020-01-08T05:44:55Z</time>
      </trkpt>
      <trkpt lat="45.85878" lon="3.19146">
        <ele>313</ele>
        <time>2020-01-08T05:45:37Z</time>
      </trkpt>
      <trkpt lat="45.8601" lon="3.19147">
        <ele>314</ele>
        <time>2020-01-08T05:46:08Z</time>
      </trkpt>
      <trkpt lat="45.86023" lon="3.19167">
        <ele>314</ele>
        <time>2020-01-08T05:46:12Z</time>
      </trkpt>
      <trkpt lat="45.86044" lon="3.19343">
        <ele>313</ele>
        <time>2020-01-08T05:46:41Z</time>
      </trkpt>
      <trkpt lat="45.86103" lon="3.19571">
        <ele>315</ele>
        <time>2020-01-08T05:47:21Z</time>
      </trkpt>
      <trkpt lat="45.86286" lon="3.20056">
        <ele>314</ele>
        <time>2020-01-08T05:48:51Z</time>
      </trkpt>
      <trkpt lat="45.86177" lon="3.20069">
        <ele>315</ele>
        <time>2020-01-08T05:49:16Z</time>
      </trkpt>
      <trkpt lat="45.86185" lon="3.20592">
        <ele>311</ele>
        <time>2020-01-08T05:50:41Z</time>
      </trkpt>
      <trkpt lat="45.86185" lon="3.21087">
        <ele>313</ele>
        <time>2020-01-08T05:52:02Z</time>
      </trkpt>
      <trkpt lat="45.86183" lon="3.21304">
        <ele>310</ele>
        <time>2020-01-08T05:52:37Z</time>
      </trkpt>
      <trkpt lat="45.86202" lon="3.21429">
        <ele>312</ele>
        <time>2020-01-08T05:52:58Z</time>
      </trkpt>
      <trkpt lat="45.86105" lon="3.21464">
        <ele>312</ele>
        <time>2020-01-08T05:53:21Z</time>
      </trkpt>
      <trkpt lat="45.85926" lon="3.21482">
        <ele>314</ele>
        <time>2020-01-08T05:54:03Z</time>
      </trkpt>
      <trkpt lat="45.85915" lon="3.2184">
        <ele>315</ele>
        <time>2020-01-08T05:55:01Z</time>
      </trkpt>
      <trkpt lat="45.85943" lon="3.21847">
        <ele>315</ele>
        <time>2020-01-08T05:55:08Z</time>
      </trkpt>
      <trkpt lat="45.85924" lon="3.22409">
        <ele>317</ele>
        <time>2020-01-08T05:56:39Z</time>
      </trkpt>
      <trkpt lat="45.8627" lon="3.22511">
        <ele>313</ele>
        <time>2020-01-08T05:58:02Z</time>
      </trkpt>
      <trkpt lat="45.8644" lon="3.22526">
        <ele>313</ele>
        <time>2020-01-08T05:58:42Z</time>
      </trkpt>
      <trkpt lat="45.86597" lon="3.22452">
        <ele>313</ele>
        <time>2020-01-08T05:59:20Z</time>
      </trkpt>
      <trkpt lat="45.86641" lon="3.22424">
        <ele>313</ele>
        <time>2020-01-08T05:59:32Z</time>
      </trkpt>
      <trkpt lat="45.86684" lon="3.22366">
        <ele>313</ele>
        <time>2020-01-08T05:59:45Z</time>
      </trkpt>
      <trkpt lat="45.86822" lon="3.22782">
        <ele>313</ele>
        <time>2020-01-08T06:01:00Z</time>
      </trkpt>
      <trkpt lat="45.86934" lon="3.23108">
        <ele>311</ele>
        <time>2020-01-08T06:01:59Z</time>
      </trkpt>
      <trkpt lat="45.87146" lon="3.22998">
        <ele>313</ele>
        <time>2020-01-08T06:02:52Z</time>
      </trkpt>
      <trkpt lat="45.8721" lon="3.22922">
        <ele>313</ele>
        <time>2020-01-08T06:03:11Z</time>
      </trkpt>
      <trkpt lat="45.8721" lon="3.22894">
        <ele>313</ele>
        <time>2020-01-08T06:03:16Z</time>
      </trkpt>
      <trkpt lat="45.87384" lon="3.22917">
        <ele>310</ele>
        <time>2020-01-08T06:03:57Z</time>
      </trkpt>
      <trkpt lat="45.8743" lon="3.22952">
        <ele>311</ele>
        <time>2020-01-08T06:04:09Z</time>
      </trkpt>
      <trkpt lat="45.87515" lon="3.23118">
        <ele>311</ele>
        <time>2020-01-08T06:04:42Z</time>
      </trkpt>
      <trkpt lat="45.8753" lon="3.23119">
        <ele>310</ele>
        <time>2020-01-08T06:04:46Z</time>
      </trkpt>
      <trkpt lat="45.87634" lon="3.23014">
        <ele>307</ele>
        <time>2020-01-08T06:05:16Z</time>
      </trkpt>
      <trkpt lat="45.8772" lon="3.23095">
        <ele>306</ele>
        <time>2020-01-08T06:05:40Z</time>
      </trkpt>
      <trkpt lat="45.87766" lon="3.2322">
        <ele>306</ele>
        <time>2020-01-08T06:06:03Z</time>
      </trkpt>
      <trkpt lat="45.87796" lon="3.23325">
        <ele>307</ele>
        <time>2020-01-08T06:06:21Z</time>
      </trkpt>
      <trkpt lat="45.87976" lon="3.23654">
        <ele>305</ele>
        <time>2020-01-08T06:07:29Z</time>
      </trkpt>
      <trkpt lat="45.88027" lon="3.23713">
        <ele>306</ele>
        <time>2020-01-08T06:07:44Z</time>
      </trkpt>
      <trkpt lat="45.88045" lon="3.23636">
        <ele>306</ele>
        <time>2020-01-08T06:07:58Z</time>
      </trkpt>
      <trkpt lat="45.88228" lon="3.23504">
        <ele>310</ele>
        <time>2020-01-08T06:08:45Z</time>
      </trkpt>
      <trkpt lat="45.8828" lon="3.2359">
        <ele>309</ele>
        <time>2020-01-08T06:09:04Z</time>
      </trkpt>
      <trkpt lat="45.88383" lon="3.23819">
        <ele>309</ele>
        <time>2020-01-08T06:09:48Z</time>
      </trkpt>
      <trkpt lat="45.88432" lon="3.24008">
        <ele>309</ele>
        <time>2020-01-08T06:10:21Z</time>
      </trkpt>
      <trkpt lat="45.88483" lon="3.24186">
        <ele>308</ele>
        <time>2020-01-08T06:10:52Z</time>
      </trkpt>
      <trkpt lat="45.88532" lon="3.243">
        <ele>308</ele>
        <time>2020-01-08T06:11:14Z</time>
      </trkpt>
      <trkpt lat="45.88582" lon="3.24411">
        <ele>308</ele>
        <time>2020-01-08T06:11:36Z</time>
      </trkpt>
      <trkpt lat="45.88706" lon="3.24769">
        <ele>309</ele>
        <time>2020-01-08T06:12:41Z</time>
      </trkpt>
      <trkpt lat="45.88991" lon="3.24638">
        <ele>305</ele>
        <time>2020-01-08T06:13:51Z</time>
      </trkpt>
      <trkpt lat="45.89175" lon="3.2466">
        <ele>309</ele>
        <time>2020-01-08T06:14:34Z</time>
      </trkpt>
      <trkpt lat="45.89179" lon="3.24743">
        <ele>309</ele>
        <time>2020-01-08T06:14:47Z</time>
      </trkpt>
      <trkpt lat="45.89296" lon="3.24782">
        <ele>308</ele>
        <time>2020-01-08T06:15:15Z</time>
      </trkpt>
      <trkpt lat="45.89492" lon="3.24808">
        <ele>311</ele>
        <time>2020-01-08T06:16:01Z</time>
      </trkpt>
      <trkpt lat="45.89653" lon="3.24823">
        <ele>312</ele>
        <time>2020-01-08T06:16:39Z</time>
      </trkpt>
      <trkpt lat="45.89753" lon="3.24874">
        <ele>312</ele>
        <time>2020-01-08T06:17:04Z</time>
      </trkpt>
      <trkpt lat="45.89837" lon="3.24906">
        <ele>311</ele>
        <time>2020-01-08T06:17:24Z</time>
      </trkpt>
      <trkpt lat="45.89824" lon="3.25526">
        <ele>312</ele>
        <time>2020-01-08T06:19:05Z</time>
      </trkpt>
      <trkpt lat="45.89843" lon="3.25525">
        <ele>312</ele>
        <time>2020-01-08T06:19:09Z</time>
      </trkpt>
      <trkpt lat="45.89868" lon="3.25542">
        <ele>312</ele>
        <time>2020-01-08T06:19:16Z</time>
      </trkpt>
      <trkpt lat="45.899" lon="3.25571">
        <ele>312</ele>
        <time>2020-01-08T06:19:24Z</time>
      </trkpt>
      <trkpt lat="45.89916" lon="3.25791">
        <ele>312</ele>
        <time>2020-01-08T06:20:00Z</time>
      </trkpt>
      <trkpt lat="45.89909" lon="3.26092">
        <ele>312</ele>
        <time>2020-01-08T06:20:49Z</time>
      </trkpt>
      <trkpt lat="45.89909" lon="3.26113">
        <ele>312</ele>
        <time>2020-01-08T06:20:53Z</time>
      </trkpt>
      <trkpt lat="45.8989" lon="3.2635">
        <ele>311</ele>
        <time>2020-01-08T06:21:32Z</time>
      </trkpt>
      <trkpt lat="45.90023" lon="3.26373">
        <ele>312</ele>
        <time>2020-01-08T06:22:03Z</time>
      </trkpt>
      <trkpt lat="45.90106" lon="3.26382">
        <ele>312</ele>
        <time>2020-01-08T06:22:22Z</time>
      </trkpt>
      <trkpt lat="45.90241" lon="3.26365">
        <ele>312</ele>
        <time>2020-01-08T06:22:54Z</time>
      </trkpt>
      <trkpt lat="45.90271" lon="3.26344">
        <ele>313</ele>
        <time>2020-01-08T06:23:02Z</time>
      </trkpt>
      <trkpt lat="45.90555" lon="3.26306">
        <ele>318</ele>
        <time>2020-01-08T06:24:08Z</time>
      </trkpt>
      <trkpt lat="45.90705" lon="3.26245">
        <ele>320</ele>
        <time>2020-01-08T06:24:45Z</time>
      </trkpt>
      <trkpt lat="45.90704" lon="3.26444">
        <ele>319</ele>
        <time>2020-01-08T06:25:17Z</time>
      </trkpt>
      <trkpt lat="45.90715" lon="3.26535">
        <ele>318</ele>
        <time>2020-01-08T06:25:32Z</time>
      </trkpt>
      <trkpt lat="45.90758" lon="3.26813">
        <ele>315</ele>
        <time>2020-01-08T06:26:18Z</time>
      </trkpt>
      <trkpt lat="45.90749" lon="3.27014">
        <ele>312</ele>
        <time>2020-01-08T06:26:51Z</time>
      </trkpt>
      <trkpt lat="45.9073" lon="3.27376">
        <ele>308</ele>
        <time>2020-01-08T06:27:50Z</time>
      </trkpt>
      <trkpt lat="45.90732" lon="3.27685">
        <ele>306</ele>
        <time>2020-01-08T06:28:40Z</time>
      </trkpt>
      <trkpt lat="45.90716" lon="3.27717">
        <ele>306</ele>
        <time>2020-01-08T06:28:47Z</time>
      </trkpt>
      <trkpt lat="45.90473" lon="3.27687">
        <ele>306</ele>
        <time>2020-01-08T06:29:44Z</time>
      </trkpt>
      <trkpt lat="45.90512" lon="3.28222">
        <ele>306</ele>
        <time>2020-01-08T06:31:11Z</time>
      </trkpt>
      <trkpt lat="45.90202" lon="3.28228">
        <ele>310</ele>
        <time>2020-01-08T06:32:23Z</time>
      </trkpt>
      <trkpt lat="45.90202" lon="3.283">
        <ele>310</ele>
        <time>2020-01-08T06:32:35Z</time>
      </trkpt>
      <trkpt lat="45.90078" lon="3.28283">
        <ele>310</ele>
        <time>2020-01-08T06:33:04Z</time>
      </trkpt>
      <trkpt lat="45.89931" lon="3.28357">
        <ele>306</ele>
        <time>2020-01-08T06:33:41Z</time>
      </trkpt>
      <trkpt lat="45.8978" lon="3.28404">
        <ele>302</ele>
        <time>2020-01-08T06:34:17Z</time>
      </trkpt>
      <trkpt lat="45.898" lon="3.28495">
        <ele>302</ele>
        <time>2020-01-08T06:34:32Z</time>
      </trkpt>
      <trkpt lat="45.89837" lon="3.28567">
        <ele>302</ele>
        <time>2020-01-08T06:34:47Z</time>
      </trkpt>
      <trkpt lat="45.89861" lon="3.28647">
        <ele>303</ele>
        <time>2020-01-08T06:35:01Z</time>
      </trkpt>
      <trkpt lat="45.89913" lon="3.28732">
        <ele>303</ele>
        <time>2020-01-08T06:35:19Z</time>
      </trkpt>
      <trkpt lat="45.89943" lon="3.28838">
        <ele>303</ele>
        <time>2020-01-08T06:35:38Z</time>
      </trkpt>
      <trkpt lat="45.90012" lon="3.29041">
        <ele>302</ele>
        <time>2020-01-08T06:36:15Z</time>
      </trkpt>
      <trkpt lat="45.90045" lon="3.29145">
        <ele>301</ele>
        <time>2020-01-08T06:36:33Z</time>
      </trkpt>
      <trkpt lat="45.90071" lon="3.29205">
        <ele>301</ele>
        <time>2020-01-08T06:36:45Z</time>
      </trkpt>
      <trkpt lat="45.90025" lon="3.29252">
        <ele>299</ele>
        <time>2020-01-08T06:36:58Z</time>
      </trkpt>
      <trkpt lat="45.89974" lon="3.2926">
        <ele>299</ele>
        <time>2020-01-08T06:37:10Z</time>
      </trkpt>
      <trkpt lat="45.89952" lon="3.29252">
        <ele>300</ele>
        <time>2020-01-08T06:37:15Z</time>
      </trkpt>
      <trkpt lat="45.89863" lon="3.2926">
        <ele>301</ele>
        <time>2020-01-08T06:37:36Z</time>
      </trkpt>
      <trkpt lat="45.89774" lon="3.29231">
        <ele>301</ele>
        <time>2020-01-08T06:37:57Z</time>
      </trkpt>
      <trkpt lat="45.89748" lon="3.29229">
        <ele>302</ele>
        <time>2020-01-08T06:38:03Z</time>
      </trkpt>
      <trkpt lat="45.8964" lon="3.29099">
        <ele>302</ele>
        <time>2020-01-08T06:38:36Z</time>
      </trkpt>
      <trkpt lat="45.89596" lon="3.2901">
        <ele>301</ele>
        <time>2020-01-08T06:38:54Z</time>
      </trkpt>
      <trkpt lat="45.89519" lon="3.28945">
        <ele>303</ele>
        <time>2020-01-08T06:39:15Z</time>
      </trkpt>
      <trkpt lat="45.8941" lon="3.28823">
        <ele>305</ele>
        <time>2020-01-08T06:39:47Z</time>
      </trkpt>
      <trkpt lat="45.89379" lon="3.288">
        <ele>307</ele>
        <time>2020-01-08T06:39:55Z</time>
      </trkpt>
      <trkpt lat="45.89345" lon="3.28799">
        <ele>310</ele>
        <time>2020-01-08T06:40:03Z</time>
      </trkpt>
      <trkpt lat="45.89272" lon="3.28816">
        <ele>311</ele>
        <time>2020-01-08T06:40:20Z</time>
      </trkpt>
      <trkpt lat="45.89235" lon="3.28681">
        <ele>313</ele>
        <time>2020-01-08T06:40:44Z</time>
      </trkpt>
      <trkpt lat="45.89221" lon="3.28546">
        <ele>311</ele>
        <time>2020-01-08T06:41:06Z</time>
      </trkpt>
      <trkpt lat="45.89213" lon="3.28513">
        <ele>310</ele>
        <time>2020-01-08T06:41:12Z</time>
      </trkpt>
      <trkpt lat="45.89092" lon="3.28182">
        <ele>308</ele>
        <time>2020-01-08T06:42:13Z</time>
      </trkpt>
      <trkpt lat="45.89033" lon="3.2806">
        <ele>308</ele>
        <time>2020-01-08T06:42:37Z</time>
      </trkpt>
      <trkpt lat="45.89021" lon="3.27993">
        <ele>308</ele>
        <time>2020-01-08T06:42:48Z</time>
      </trkpt>
      <trkpt lat="45.88948" lon="3.27678">
        <ele>310</ele>
        <time>2020-01-08T06:43:42Z</time>
      </trkpt>
      <trkpt lat="45.88927" lon="3.27597">
        <ele>311</ele>
        <time>2020-01-08T06:43:56Z</time>
      </trkpt>
      <trkpt lat="45.88896" lon="3.27459">
        <ele>310</ele>
        <time>2020-01-08T06:44:20Z</time>
      </trkpt>
      <trkpt lat="45.88813" lon="3.27223">
        <ele>310</ele>
        <time>2020-01-08T06:45:03Z</time>
      </trkpt>
      <trkpt lat="45.88778" lon="3.27121">
        <ele>310</ele>
        <time>2020-01-08T06:45:21Z</time>
      </trkpt>
      <trkpt lat="45.88721" lon="3.2701">
        <ele>309</ele>
        <time>2020-01-08T06:45:44Z</time>
      </trkpt>
      <trkpt lat="45.88672" lon="3.26923">
        <ele>309</ele>
        <time>2020-01-08T06:46:02Z</time>
      </trkpt>
      <trkpt lat="45.88728" lon="3.26783">
        <ele>306</ele>
        <time>2020-01-08T06:46:28Z</time>
      </trkpt>
      <trkpt lat="45.88741" lon="3.26747">
        <ele>305</ele>
        <time>2020-01-08T06:46:35Z</time>
      </trkpt>
      <trkpt lat="45.88737" lon="3.26668">
        <ele>305</ele>
        <time>2020-01-08T06:46:47Z</time>
      </trkpt>
      <trkpt lat="45.88741" lon="3.26593">
        <ele>304</ele>
        <time>2020-01-08T06:47:00Z</time>
      </trkpt>
      <trkpt lat="45.88736" lon="3.26521">
        <ele>305</ele>
        <time>2020-01-08T06:47:11Z</time>
      </trkpt>
      <trkpt lat="45.88771" lon="3.26401">
        <ele>306</ele>
        <time>2020-01-08T06:47:33Z</time>
      </trkpt>
      <trkpt lat="45.88835" lon="3.26412">
        <ele>301</ele>
        <time>2020-01-08T06:47:48Z</time>
      </trkpt>
      <trkpt lat="45.88888" lon="3.26397">
        <ele>302</ele>
        <time>2020-01-08T06:48:00Z</time>
      </trkpt>
      <trkpt lat="45.88905" lon="3.26337">
        <ele>302</ele>
        <time>2020-01-08T06:48:11Z</time>
      </trkpt>
      <trkpt lat="45.8892" lon="3.26315">
        <ele>302</ele>
        <time>2020-01-08T06:48:16Z</time>
      </trkpt>
      <trkpt lat="45.88905" lon="3.26206">
        <ele>303</ele>
        <time>2020-01-08T06:48:34Z</time>
      </trkpt>
      <trkpt lat="45.88901" lon="3.26084">
        <ele>304</ele>
        <time>2020-01-08T06:48:54Z</time>
      </trkpt>
      <trkpt lat="45.88986" lon="3.26077">
        <ele>307</ele>
        <time>2020-01-08T06:49:14Z</time>
      </trkpt>
      <trkpt lat="45.89121" lon="3.26039">
        <ele>308</ele>
        <time>2020-01-08T06:49:46Z</time>
      </trkpt>
      <trkpt lat="45.89175" lon="3.26022">
        <ele>305</ele>
        <time>2020-01-08T06:49:59Z</time>
      </trkpt>
      <trkpt lat="45.89157" lon="3.25923">
        <ele>305</ele>
        <time>2020-01-08T06:50:15Z</time>
      </trkpt>
      <trkpt lat="45.89169" lon="3.25831">
        <ele>305</ele>
        <time>2020-01-08T06:50:30Z</time>
      </trkpt>
      <trkpt lat="45.89043" lon="3.25892">
        <ele>307</ele>
        <time>2020-01-08T06:51:02Z</time>
      </trkpt>
      <trkpt lat="45.89033" lon="3.25877">
        <ele>307</ele>
        <time>2020-01-08T06:51:05Z</time>
      </trkpt>
      <trkpt lat="45.88953" lon="3.25932">
        <ele>306</ele>
        <time>2020-01-08T06:51:26Z</time>
      </trkpt>
      <trkpt lat="45.88883" lon="3.25967">
        <ele>304</ele>
        <time>2020-01-08T06:51:43Z</time>
      </trkpt>
      <trkpt lat="45.88846" lon="3.26022">
        <ele>303</ele>
        <time>2020-01-08T06:51:55Z</time>
      </trkpt>
      <trkpt lat="45.88847" lon="3.26077">
        <ele>302</ele>
        <time>2020-01-08T06:52:04Z</time>
      </trkpt>
      <trkpt lat="45.88773" lon="3.26065">
        <ele>308</ele>
        <time>2020-01-08T06:52:22Z</time>
      </trkpt>
      <trkpt lat="45.88795" lon="3.26166">
        <ele>306</ele>
        <time>2020-01-08T06:52:39Z</time>
      </trkpt>
      <trkpt lat="45.8878" lon="3.26258">
        <ele>305</ele>
        <time>2020-01-08T06:52:54Z</time>
      </trkpt>
      <trkpt lat="45.88777" lon="3.26327">
        <ele>305</ele>
        <time>2020-01-08T06:53:06Z</time>
      </trkpt>
      <trkpt lat="45.88757" lon="3.26402">
        <ele>307</ele>
        <time>2020-01-08T06:53:19Z</time>
      </trkpt>
      <trkpt lat="45.88722" lon="3.26525">
        <ele>306</ele>
        <time>2020-01-08T06:53:40Z</time>
      </trkpt>
      <trkpt lat="45.88729" lon="3.26604">
        <ele>305</ele>
        <time>2020-01-08T06:53:53Z</time>
      </trkpt>
      <trkpt lat="45.88723" lon="3.26668">
        <ele>306</ele>
        <time>2020-01-08T06:54:04Z</time>
      </trkpt>
      <trkpt lat="45.88727" lon="3.26742">
        <ele>305</ele>
        <time>2020-01-08T06:54:16Z</time>
      </trkpt>
      <trkpt lat="45.88647" lon="3.26956">
        <ele>309</ele>
        <time>2020-01-08T06:54:55Z</time>
      </trkpt>
      <trkpt lat="45.88617" lon="3.26997">
        <ele>308</ele>
        <time>2020-01-08T06:55:05Z</time>
      </trkpt>
      <trkpt lat="45.88516" lon="3.27051">
        <ele>308</ele>
        <time>2020-01-08T06:55:30Z</time>
      </trkpt>
      <trkpt lat="45.88441" lon="3.27219">
        <ele>309</ele>
        <time>2020-01-08T06:56:02Z</time>
      </trkpt>
      <trkpt lat="45.88073" lon="3.27375">
        <ele>312</ele>
        <time>2020-01-08T06:57:32Z</time>
      </trkpt>
      <trkpt lat="45.87981" lon="3.27403">
        <ele>312</ele>
        <time>2020-01-08T06:57:54Z</time>
      </trkpt>
      <trkpt lat="45.87915" lon="3.27535">
        <ele>315</ele>
        <time>2020-01-08T06:58:20Z</time>
      </trkpt>
      <trkpt lat="45.87476" lon="3.27939">
        <ele>319</ele>
        <time>2020-01-08T07:00:22Z</time>
      </trkpt>
      <trkpt lat="45.87448" lon="3.27931">
        <ele>320</ele>
        <time>2020-01-08T07:00:29Z</time>
      </trkpt>
      <trkpt lat="45.87396" lon="3.28084">
        <ele>319</ele>
        <time>2020-01-08T07:00:57Z</time>
      </trkpt>
      <trkpt lat="45.86974" lon="3.27962">
        <ele>322</ele>
        <time>2020-01-08T07:02:37Z</time>
      </trkpt>
      <trkpt lat="45.86472" lon="3.27576">
        <ele>325</ele>
        <time>2020-01-08T07:04:50Z</time>
      </trkpt>
      <trkpt lat="45.86158" lon="3.27326">
        <ele>329</ele>
        <time>2020-01-08T07:06:14Z</time>
      </trkpt>
      <trkpt lat="45.86181" lon="3.27017">
        <ele>331</ele>
        <time>2020-01-08T07:07:04Z</time>
      </trkpt>
      <trkpt lat="45.85833" lon="3.27">
        <ele>337</ele>
        <time>2020-01-08T07:08:26Z</time>
      </trkpt>
      <trkpt lat="45.85643" lon="3.26979">
        <ele>336</ele>
        <time>2020-01-08T07:09:10Z</time>
      </trkpt>
      <trkpt lat="45.85486" lon="3.26928">
        <ele>337</ele>
        <time>2020-01-08T07:09:48Z</time>
      </trkpt>
      <trkpt lat="45.85148" lon="3.26875">
        <ele>338</ele>
        <time>2020-01-08T07:11:07Z</time>
      </trkpt>
      <trkpt lat="45.85152" lon="3.26729">
        <ele>337</ele>
        <time>2020-01-08T07:11:31Z</time>
      </trkpt>
      <trkpt lat="45.85211" lon="3.26401">
        <ele>334</ele>
        <time>2020-01-08T07:12:26Z</time>
      </trkpt>
      <trkpt lat="45.85142" lon="3.26461">
        <ele>334</ele>
        <time>2020-01-08T07:12:45Z</time>
      </trkpt>
      <trkpt lat="45.8504" lon="3.26518">
        <ele>336</ele>
        <time>2020-01-08T07:13:11Z</time>
      </trkpt>
      <trkpt lat="45.84954" lon="3.265">
        <ele>337</ele>
        <time>2020-01-08T07:13:31Z</time>
      </trkpt>
      <trkpt lat="45.84691" lon="3.26438">
        <ele>344</ele>
        <time>2020-01-08T07:14:33Z</time>
      </trkpt>
      <trkpt lat="45.84611" lon="3.26464">
        <ele>346</ele>
        <time>2020-01-08T07:14:52Z</time>
      </trkpt>
      <trkpt lat="45.84588" lon="3.26451">
        <ele>347</ele>
        <time>2020-01-08T07:14:58Z</time>
      </trkpt>
      <trkpt lat="45.84385" lon="3.26315">
        <ele>358</ele>
        <time>2020-01-08T07:15:50Z</time>
      </trkpt>
      <trkpt lat="45.84416" lon="3.26121">
        <ele>361</ele>
        <time>2020-01-08T07:16:23Z</time>
      </trkpt>
      <trkpt lat="45.84311" lon="3.26063">
        <ele>361</ele>
        <time>2020-01-08T07:16:49Z</time>
      </trkpt>
      <trkpt lat="45.84274" lon="3.26073">
        <ele>361</ele>
        <time>2020-01-08T07:16:58Z</time>
      </trkpt>
      <trkpt lat="45.84118" lon="3.26022">
        <ele>360</ele>
      </trkpt>
      <trkpt lat="45.84076" lon="3.25999">
        <ele>359.9</ele>
      </trkpt>
      <trkpt lat="45.84015" lon="3.25982">
        <ele>359.4</ele>
      </trkpt>
      <trkpt lat="45.83946" lon="3.26001">
        <ele>353.2</ele>
      </trkpt>
      <trkpt lat="45.83898" lon="3.26052">
        <ele>341</ele>
      </trkpt>
      <trkpt lat="45.83831" lon="3.26065">
        <ele>327.5</ele>
      </trkpt>
      <trkpt lat="45.83757" lon="3.26106">
        <ele>320.9</ele>
      </trkpt>
      <trkpt lat="45.83733" lon="3.26119">
        <ele>317.6</ele>
      </trkpt>
    </trkseg>
  </trk>
</gpx>